Time;durP1;ratioP1;P1;durP2;ratioP2;P2;SDS_P1;SDS_P2;PMS_P1;PMS_P2;Temp;Humidity;BMP_temperature;BMP_pressure;BME280_temperature;BME280_humidity;BME280_pressure;Samples;Min_cycle;Max_cycle;Signal;HPM_P1;HPM_P2
2023/10/25 00:00:13;;;;;;;27.70;21.73;;;;;21.80;99168.00;;;;2049314;28;20250;-64
2023/10/25 00:01:13;;;;;;;33.20;25.40;;;;;21.90;99173.00;;;;2061558;28;20270;-64
2023/10/25 00:02:13;;;;;;;40.00;27.97;;;;;21.80;99171.00;;;;2070388;28;20602;-64
2023/10/25 00:03:15;;;;;;;39.63;29.00;;;;;21.80;99170.00;;;;2064974;28;20641;-64
2023/10/25 00:04:15;;;;;;;43.00;30.17;;;;;21.80;99168.00;;;;2065731;28;20245;-64
2023/10/25 00:05:16;;;;;;;47.50;32.77;;;;;21.80;99165.00;;;;2055037;28;20655;-64
2023/10/25 00:06:16;;;;;;;41.97;32.43;;;;;21.80;99161.00;;;;2061990;28;20897;-64
2023/10/25 00:07:18;;;;;;;53.27;37.40;;;;;21.80;99168.00;;;;2063193;28;20654;-64
2023/10/25 00:08:18;;;;;;;46.83;33.40;;;;;21.90;99166.00;;;;2062408;28;20215;-64
2023/10/25 00:09:19;;;;;;;56.50;36.40;;;;;21.80;99167.00;;;;2070547;28;20213;-64
2023/10/25 00:10:19;;;;;;;49.83;36.57;;;;;21.80;99164.00;;;;2058628;28;20214;-64
2023/10/25 00:11:19;;;;;;;55.30;37.60;;;;;21.80;99163.00;;;;2071372;28;20256;-64
2023/10/25 00:12:21;;;;;;;50.93;37.53;;;;;21.80;99161.00;;;;2072134;28;20280;-64
2023/10/25 00:13:21;;;;;;;54.95;37.05;;;;;21.80;99161.00;;;;2071922;28;20222;-64
2023/10/25 00:14:22;;;;;;;51.80;38.17;;;;;21.80;99161.00;;;;2073741;28;20214;-64
2023/10/25 00:15:22;;;;;;;58.13;38.00;;;;;21.80;99147.00;;;;2054463;28;20206;-64
2023/10/25 00:16:22;;;;;;;51.63;39.20;;;;;21.80;99167.00;;;;2061756;28;20225;-64
2023/10/25 00:17:23;;;;;;;58.77;40.10;;;;;21.80;99165.00;;;;2062023;28;20299;-64
2023/10/25 00:18:24;;;;;;;51.87;37.30;;;;;21.80;99159.00;;;;2061612;28;20215;-64
2023/10/25 00:19:24;;;;;;;56.38;37.58;;;;;21.80;99165.00;;;;2065472;28;20276;-64
2023/10/25 00:20:25;;;;;;;51.37;38.00;;;;;21.80;99166.00;;;;2059580;28;20222;-64
2023/10/25 00:21:25;;;;;;;48.60;35.40;;;;;21.80;99167.00;;;;2070488;28;20252;-64
2023/10/25 00:22:25;;;;;;;51.30;36.43;;;;;21.80;99168.00;;;;2071445;28;20632;-64
2023/10/25 00:23:26;;;;;;;50.60;36.53;;;;;21.80;99167.00;;;;2065245;28;20227;-64
2023/10/25 00:24:26;;;;;;;52.30;37.23;;;;;21.80;99171.00;;;;2071776;28;20225;-64
2023/10/25 00:25:26;;;;;;;51.97;37.00;;;;;21.80;99171.00;;;;2053133;28;20245;-64
2023/10/25 00:26:27;;;;;;;49.27;37.13;;;;;21.80;99166.00;;;;2066791;28;20217;-64
2023/10/25 00:27:27;;;;;;;53.13;36.80;;;;;21.70;99166.00;;;;2071681;28;20271;-64
2023/10/25 00:28:27;;;;;;;50.27;35.53;;;;;21.80;99163.00;;;;2063276;28;20629;-64
2023/10/25 00:29:28;;;;;;;52.90;36.40;;;;;21.80;99171.00;;;;2067303;28;20890;-64
2023/10/25 00:30:28;;;;;;;47.40;34.10;;;;;21.80;99169.00;;;;2053832;28;20701;-64
2023/10/25 00:31:28;;;;;;;46.97;33.80;;;;;21.80;99169.00;;;;2062044;28;20207;-64
2023/10/25 00:32:29;;;;;;;49.37;35.57;;;;;21.80;99167.00;;;;2060840;28;20219;-64
2023/10/25 00:33:29;;;;;;;48.63;33.43;;;;;21.80;99159.00;;;;2071664;28;20226;-64
2023/10/25 00:34:29;;;;;;;47.37;34.83;;;;;21.80;99170.00;;;;2078375;28;20213;-64
2023/10/25 00:35:30;;;;;;;46.80;31.93;;;;;21.70;99168.00;;;;2068155;28;20250;-64
2023/10/25 00:36:30;;;;;;;45.73;31.97;;;;;21.80;99168.00;;;;2071427;28;20206;-64
2023/10/25 00:37:31;;;;;;;40.30;30.67;;;;;21.70;99176.00;;;;2071178;28;20712;-64
2023/10/25 00:38:31;;;;;;;46.00;30.83;;;;;21.70;99171.00;;;;2071194;28;20457;-64
2023/10/25 00:39:31;;;;;;;39.20;29.57;;;;;21.70;99165.00;;;;2071761;28;20256;-64
2023/10/25 00:40:32;;;;;;;44.50;30.17;;;;;21.70;99170.00;;;;2053648;28;20207;-64
2023/10/25 00:41:32;;;;;;;44.73;30.07;;;;;21.70;99168.00;;;;2067085;28;20203;-64
2023/10/25 00:42:35;;;;;;;43.30;29.47;;;;;21.70;99166.00;;;;2054628;28;20270;-64
2023/10/25 00:43:36;;;;;;;37.67;27.65;;;;;21.70;99148.00;;;;2054938;28;20231;-64
2023/10/25 00:44:36;;;;;;;37.27;28.07;;;;;21.70;99161.00;;;;2054868;28;20302;-64
2023/10/25 00:45:36;;;;;;;39.77;27.20;;;;;21.70;99174.00;;;;2051808;28;20215;-64
2023/10/25 00:46:37;;;;;;;37.53;26.80;;;;;21.70;99172.00;;;;2053516;28;20219;-64
2023/10/25 00:47:37;;;;;;;36.30;25.83;;;;;21.70;99169.00;;;;2051013;28;20232;-64
2023/10/25 00:48:39;;;;;;;39.20;25.90;;;;;21.70;99172.00;;;;2064952;28;20222;-64
2023/10/25 00:49:39;;;;;;;33.45;26.70;;;;;21.70;99165.00;;;;2061053;28;20215;-64
2023/10/25 00:50:39;;;;;;;34.67;25.03;;;;;21.70;99120.00;;;;2053217;28;20234;-64
2023/10/25 00:51:39;;;;;;;36.13;25.50;;;;;21.70;99163.00;;;;2064278;28;20265;-64
2023/10/25 00:52:40;;;;;;;35.77;25.80;;;;;21.70;99126.00;;;;2057095;28;20216;-64
2023/10/25 00:53:42;;;;;;;36.17;24.10;;;;;21.70;99157.00;;;;2061131;28;20820;-64
2023/10/25 00:54:42;;;;;;;32.42;23.80;;;;;21.70;99146.00;;;;2043321;28;20231;-64
2023/10/25 00:55:43;;;;;;;31.63;23.20;;;;;21.70;99158.00;;;;2050838;28;20636;-64
2023/10/25 00:56:43;;;;;;;32.50;24.40;;;;;21.70;99163.00;;;;2055496;28;20676;-64
2023/10/25 00:57:43;;;;;;;33.77;22.97;;;;;21.70;99147.00;;;;2065113;28;20560;-64
2023/10/25 00:58:44;;;;;;;30.70;21.83;;;;;21.70;99163.00;;;;2060737;28;20268;-64
2023/10/25 00:59:45;;;;;;;31.88;22.95;;;;;21.70;99158.00;;;;2044007;28;20230;-64
2023/10/25 01:00:45;;;;;;;32.30;22.20;;;;;21.70;99163.00;;;;2062891;28;20237;-64
2023/10/25 01:01:46;;;;;;;29.63;21.50;;;;;21.70;99154.00;;;;2065638;28;20207;-64
2023/10/25 01:02:46;;;;;;;30.00;21.40;;;;;21.70;99159.00;;;;2073242;28;20643;-64
2023/10/25 01:03:46;;;;;;;30.47;21.93;;;;;21.70;99154.00;;;;2070151;28;20594;-64
2023/10/25 01:04:47;;;;;;;27.90;20.17;;;;;21.70;99159.00;;;;2060861;28;20217;-64
2023/10/25 01:05:47;;;;;;;29.67;21.03;;;;;21.70;99159.00;;;;2060166;28;20222;-64
2023/10/25 01:06:47;;;;;;;25.60;19.23;;;;;21.70;99153.00;;;;2069729;28;20210;-64
2023/10/25 01:07:48;;;;;;;27.33;18.07;;;;;21.70;99156.00;;;;2071585;28;20224;-64
2023/10/25 01:08:49;;;;;;;29.97;20.37;;;;;21.70;99153.00;;;;2071750;28;20217;-64
2023/10/25 01:09:49;;;;;;;26.70;19.57;;;;;21.70;99158.00;;;;2061598;28;20458;-64
2023/10/25 01:10:51;;;;;;;27.60;17.93;;;;;21.70;99162.00;;;;2051547;28;20211;-64
2023/10/25 01:11:51;;;;;;;26.63;19.80;;;;;21.70;99121.00;;;;2061415;28;20309;-64
2023/10/25 01:12:51;;;;;;;24.50;18.07;;;;;21.70;99157.00;;;;2072638;28;20218;-64
2023/10/25 01:13:52;;;;;;;25.60;18.17;;;;;21.70;99165.00;;;;2078238;28;20229;-64
2023/10/25 01:14:52;;;;;;;25.07;18.30;;;;;21.70;99113.00;;;;2061118;28;20286;-64
2023/10/25 01:15:52;;;;;;;26.87;18.70;;;;;21.70;99162.00;;;;2069318;28;20215;-64
2023/10/25 01:16:53;;;;;;;23.30;17.53;;;;;21.70;99161.00;;;;2071659;28;20234;-64
2023/10/25 01:17:53;;;;;;;26.03;17.50;;;;;21.70;99154.00;;;;2071746;28;20217;-64
2023/10/25 01:18:54;;;;;;;22.07;16.83;;;;;21.70;99159.00;;;;2068535;28;20268;-64
2023/10/25 01:19:54;;;;;;;23.30;16.80;;;;;21.70;99158.00;;;;2057572;28;20294;-64
2023/10/25 01:20:54;;;;;;;23.13;17.70;;;;;21.70;99161.00;;;;2074338;28;20555;-64
2023/10/25 01:21:55;;;;;;;22.40;16.50;;;;;21.70;99157.00;;;;2067144;28;21163;-64
2023/10/25 01:22:55;;;;;;;21.40;16.00;;;;;21.70;99162.00;;;;2070120;28;20216;-64
2023/10/25 01:23:55;;;;;;;21.20;15.60;;;;;21.70;99158.00;;;;2071643;28;20221;-64
2023/10/25 01:24:56;;;;;;;23.23;15.03;;;;;21.60;99156.00;;;;2052520;28;20784;-64
2023/10/25 01:25:56;;;;;;;18.60;14.50;;;;;21.60;99153.00;;;;2063670;28;20780;-64
2023/10/25 01:26:56;;;;;;;21.47;15.67;;;;;21.60;99151.00;;;;2061161;28;20844;-64
2023/10/25 01:27:58;;;;;;;23.73;14.93;;;;;21.60;99156.00;;;;2061348;28;20706;-64
2023/10/25 01:28:58;;;;;;;21.80;16.00;;;;;21.60;99121.00;;;;2067775;28;20222;-64
2023/10/25 01:29:59;;;;;;;19.43;14.13;;;;;21.60;99149.00;;;;2053739;28;20218;-64
2023/10/25 01:30:59;;;;;;;20.53;14.63;;;;;21.60;99145.00;;;;2074122;28;20218;-64
2023/10/25 01:31:59;;;;;;;20.40;14.10;;;;;21.60;99147.00;;;;2075636;28;20217;-64
2023/10/25 01:33:00;;;;;;;19.73;14.33;;;;;21.60;99146.00;;;;2068749;28;20241;-64
2023/10/25 01:34:00;;;;;;;19.70;14.17;;;;;21.60;99147.00;;;;2066681;28;20218;-64
2023/10/25 01:35:00;;;;;;;17.73;13.67;;;;;21.60;99144.00;;;;2058031;28;20224;-64
2023/10/25 01:36:01;;;;;;;19.03;13.60;;;;;21.60;99145.00;;;;2059160;28;20243;-64
2023/10/25 01:37:01;;;;;;;18.10;13.93;;;;;21.60;99141.00;;;;2061619;28;20225;-64
2023/10/25 01:38:02;;;;;;;18.10;13.30;;;;;21.60;99137.00;;;;2065061;28;20237;-64
2023/10/25 01:39:03;;;;;;;19.13;13.17;;;;;21.60;99141.00;;;;2067749;28;20224;-64
2023/10/25 01:40:04;;;;;;;19.77;13.00;;;;;21.60;99139.00;;;;2061693;28;20468;-64
2023/10/25 01:41:04;;;;;;;18.25;12.73;;;;;21.60;99140.00;;;;2071640;28;20967;-64
2023/10/25 01:42:05;;;;;;;15.20;11.20;;;;;21.60;99135.00;;;;2072336;28;20230;-63
2023/10/25 01:43:05;;;;;;;18.00;12.73;;;;;21.60;99113.00;;;;2073192;28;20316;-63
2023/10/25 01:44:06;;;;;;;16.00;11.77;;;;;21.60;99143.00;;;;2068043;28;20454;-63
2023/10/25 01:45:06;;;;;;;19.53;12.00;;;;;21.60;99072.00;;;;2061912;28;20316;-63
2023/10/25 01:46:07;;;;;;;14.33;11.90;;;;;21.60;99135.00;;;;2072641;28;20214;-63
2023/10/25 01:47:07;;;;;;;15.47;11.23;;;;;21.60;99139.00;;;;2071385;28;20222;-63
2023/10/25 01:48:08;;;;;;;13.70;11.00;;;;;21.60;99132.00;;;;2073030;28;20225;-63
2023/10/25 01:49:08;;;;;;;15.70;11.45;;;;;21.60;99135.00;;;;2068358;28;20289;-63
2023/10/25 01:50:09;;;;;;;15.30;11.53;;;;;21.60;99130.00;;;;2057586;28;20289;-63
2023/10/25 01:51:09;;;;;;;15.47;11.47;;;;;21.60;99135.00;;;;2065062;28;20223;-63
2023/10/25 01:52:10;;;;;;;15.17;11.50;;;;;21.60;99132.00;;;;2065254;28;20219;-63
2023/10/25 01:53:10;;;;;;;15.17;10.97;;;;;21.60;99131.00;;;;2064346;28;20660;-63
2023/10/25 01:54:10;;;;;;;13.80;10.50;;;;;21.60;99133.00;;;;2062040;28;20310;-63
2023/10/25 01:55:11;;;;;;;16.97;10.47;;;;;21.60;99131.00;;;;2060936;28;20707;-63
2023/10/25 01:56:11;;;;;;;15.80;11.03;;;;;21.60;99128.00;;;;2073173;28;20709;-63
2023/10/25 01:57:15;;;;;;;12.27;9.93;;;;;21.60;99123.00;;;;2072446;28;20220;-63
2023/10/25 01:58:16;;;;;;;14.82;10.43;;;;;21.50;99124.00;;;;2069701;28;20694;-63
2023/10/25 01:59:16;;;;;;;13.23;10.07;;;;;21.60;99125.00;;;;2072182;28;20297;-63
2023/10/25 02:00:17;;;;;;;13.10;9.93;;;;;21.50;99119.00;;;;2063110;28;20631;-63
2023/10/25 02:01:17;;;;;;;12.63;10.23;;;;;21.60;99114.00;;;;2068524;28;20706;-63
2023/10/25 02:02:17;;;;;;;12.77;8.97;;;;;21.60;99113.00;;;;2067581;28;20206;-63
2023/10/25 02:03:18;;;;;;;13.10;9.10;;;;;21.60;99114.00;;;;2064847;28;20298;-63
2023/10/25 02:04:18;;;;;;;13.53;9.07;;;;;21.60;99109.00;;;;2069873;28;20233;-63
2023/10/25 02:05:18;;;;;;;12.20;8.27;;;;;21.60;99123.00;;;;2055529;28;20226;-63
2023/10/25 02:06:19;;;;;;;12.10;8.30;;;;;21.60;99120.00;;;;2069624;28;20210;-63
2023/10/25 02:07:19;;;;;;;12.30;9.43;;;;;21.60;99117.00;;;;2063023;28;20224;-63
2023/10/25 02:08:19;;;;;;;11.63;8.70;;;;;21.60;99110.00;;;;2062708;28;20203;-63
2023/10/25 02:09:20;;;;;;;12.33;8.33;;;;;21.60;99109.00;;;;2065900;28;20237;-63
2023/10/25 02:10:20;;;;;;;13.73;9.00;;;;;21.60;99081.00;;;;2054765;28;20266;-63
2023/10/25 02:11:21;;;;;;;13.33;9.37;;;;;21.60;99107.00;;;;2075137;28;20256;-63
2023/10/25 02:12:21;;;;;;;12.23;9.05;;;;;21.60;99107.00;;;;2073882;28;20786;-63
2023/10/25 02:13:22;;;;;;;13.23;8.70;;;;;21.60;99107.00;;;;2060857;28;20231;-63
2023/10/25 02:14:22;;;;;;;10.30;7.93;;;;;21.60;99104.00;;;;2065969;28;20309;-63
2023/10/25 02:15:22;;;;;;;11.80;9.13;;;;;21.60;99095.00;;;;2057003;28;20287;-63
2023/10/25 02:16:23;;;;;;;10.93;7.63;;;;;21.60;99097.00;;;;2063954;28;20222;-63
2023/10/25 02:17:23;;;;;;;10.30;8.30;;;;;21.60;99102.00;;;;2065010;28;20217;-63
2023/10/25 02:18:24;;;;;;;9.40;6.80;;;;;21.50;99093.00;;;;2069154;28;20596;-63
2023/10/25 02:19:24;;;;;;;11.00;7.37;;;;;21.50;99100.00;;;;2072920;28;20633;-63
2023/10/25 02:20:24;;;;;;;14.30;8.43;;;;;21.40;99091.00;;;;2055758;28;21085;-63
2023/10/25 02:21:25;;;;;;;8.57;7.67;;;;;21.50;99093.00;;;;2066639;28;20764;-63
2023/10/25 02:22:25;;;;;;;9.43;7.70;;;;;21.50;99072.00;;;;2057466;28;20234;-64
2023/10/25 02:23:25;;;;;;;10.17;7.43;;;;;21.50;99089.00;;;;2062976;28;20238;-64
2023/10/25 02:24:26;;;;;;;9.63;7.00;;;;;21.50;99088.00;;;;2072824;28;20241;-63
2023/10/25 02:25:26;;;;;;;10.83;7.50;;;;;21.50;99091.00;;;;2062261;28;20249;-63
2023/10/25 02:26:27;;;;;;;10.10;7.47;;;;;21.50;99082.00;;;;2067811;28;20215;-63
2023/10/25 02:27:27;;;;;;;10.50;7.13;;;;;21.50;99088.00;;;;2056042;28;20240;-63
2023/10/25 02:28:27;;;;;;;10.20;6.87;;;;;21.50;99083.00;;;;2056646;28;20228;-63
2023/10/25 02:29:28;;;;;;;10.10;7.03;;;;;21.50;99080.00;;;;2070026;28;20245;-63
2023/10/25 02:30:28;;;;;;;11.60;7.13;;;;;21.50;99086.00;;;;2065175;28;20249;-63
2023/10/25 02:31:28;;;;;;;10.50;7.40;;;;;21.50;99091.00;;;;2073912;28;20222;-63
2023/10/25 02:32:29;;;;;;;10.53;7.30;;;;;21.50;99090.00;;;;2068342;28;20241;-63
2023/10/25 02:33:29;;;;;;;10.73;6.97;;;;;21.50;99091.00;;;;2073759;28;20306;-63
2023/10/25 02:34:31;;;;;;;9.73;6.60;;;;;21.50;99087.00;;;;2065649;28;20215;-63
2023/10/25 02:35:34;;;;;;;8.25;6.13;;;;;21.50;99087.00;;;;2066071;28;20213;-63
2023/10/25 02:36:35;;;;;;;9.23;5.68;;;;;21.50;99093.00;;;;2060950;28;20254;-63
2023/10/25 02:37:35;;;;;;;10.90;6.87;;;;;21.50;99089.00;;;;2063905;28;20276;-63
2023/10/25 02:38:36;;;;;;;8.43;5.60;;;;;21.50;99090.00;;;;2063235;28;20230;-63
2023/10/25 02:39:37;;;;;;;11.30;6.50;;;;;21.50;99074.00;;;;2065238;28;20238;-63
2023/10/25 02:40:37;;;;;;;8.45;6.07;;;;;21.50;99091.00;;;;2054769;28;20297;-63
2023/10/25 02:41:38;;;;;;;9.17;5.90;;;;;21.50;99089.00;;;;2072588;28;20214;-63
2023/10/25 02:42:42;;;;;;;7.57;5.53;;;;;21.50;99082.00;;;;2061571;28;20259;-64
2023/10/25 02:43:43;;;;;;;7.88;5.60;;;;;21.50;99083.00;;;;2056609;28;20224;-64
2023/10/25 02:44:43;;;;;;;9.27;5.63;;;;;21.50;99083.00;;;;2061229;28;20281;-64
2023/10/25 02:45:43;;;;;;;8.50;5.90;;;;;21.50;99080.00;;;;2067322;28;20442;-64
2023/10/25 02:46:44;;;;;;;6.93;5.53;;;;;21.50;99079.00;;;;2067166;28;20697;-64
2023/10/25 02:47:44;;;;;;;7.83;5.60;;;;;21.50;99078.00;;;;2064857;28;20254;-64
2023/10/25 02:48:44;;;;;;;6.87;5.20;;;;;21.50;99076.00;;;;2076846;28;20213;-64
2023/10/25 02:49:45;;;;;;;9.00;5.13;;;;;21.50;99077.00;;;;2065522;28;20685;-64
2023/10/25 02:50:45;;;;;;;8.57;5.83;;;;;21.50;99080.00;;;;2072641;28;20264;-64
2023/10/25 02:51:45;;;;;;;8.73;5.87;;;;;21.50;99073.00;;;;2072105;28;20222;-64
2023/10/25 02:52:48;;;;;;;7.20;5.10;;;;;21.50;99077.00;;;;2070385;28;20260;-64
2023/10/25 02:53:48;;;;;;;6.10;4.78;;;;;21.50;99059.00;;;;2067328;28;20265;-64
2023/10/25 02:54:48;;;;;;;6.60;4.63;;;;;21.50;99073.00;;;;2060422;28;20602;-64
2023/10/25 02:55:49;;;;;;;7.50;4.67;;;;;21.50;99063.00;;;;2051757;28;20641;-64
2023/10/25 02:56:49;;;;;;;8.37;5.03;;;;;21.50;99062.00;;;;2067451;28;20720;-64
2023/10/25 02:57:49;;;;;;;8.47;5.70;;;;;21.50;99066.00;;;;2074001;28;20242;-64
2023/10/25 02:58:50;;;;;;;9.53;5.03;;;;;21.50;99066.00;;;;2074601;28;20237;-64
2023/10/25 02:59:51;;;;;;;6.10;5.07;;;;;21.50;99057.00;;;;2054843;28;20239;-64
2023/10/25 03:00:51;;;;;;;8.05;5.40;;;;;21.50;99063.00;;;;2057064;28;20696;-64
2023/10/25 03:01:52;;;;;;;7.00;4.70;;;;;21.50;99048.00;;;;2061893;28;20234;-63
2023/10/25 03:02:52;;;;;;;6.17;4.50;;;;;21.50;99058.00;;;;2065923;28;20254;-63
2023/10/25 03:03:53;;;;;;;7.40;4.70;;;;;21.50;99058.00;;;;2071821;28;20222;-63
2023/10/25 03:04:53;;;;;;;6.93;4.37;;;;;21.50;99054.00;;;;2060987;28;20697;-63
2023/10/25 03:05:54;;;;;;;7.10;4.43;;;;;21.50;99058.00;;;;2065952;28;20232;-63
2023/10/25 03:06:54;;;;;;;5.40;4.43;;;;;21.50;99062.00;;;;2062504;28;20215;-63
2023/10/25 03:07:54;;;;;;;5.17;3.70;;;;;21.50;99061.00;;;;2059023;28;20262;-63
2023/10/25 03:08:55;;;;;;;6.50;4.97;;;;;21.50;99057.00;;;;2079425;28;20276;-64
2023/10/25 03:09:55;;;;;;;6.00;4.83;;;;;21.50;99068.00;;;;2068899;28;20218;-64
2023/10/25 03:10:56;;;;;;;6.17;4.23;;;;;21.50;99061.00;;;;2073742;28;20654;-63
2023/10/25 03:11:58;;;;;;;6.77;4.80;;;;;21.40;99047.00;;;;2072420;28;20246;-63
2023/10/25 03:12:59;;;;;;;6.60;4.10;;;;;21.50;99050.00;;;;2072738;28;20304;-63
2023/10/25 03:13:59;;;;;;;6.57;4.45;;;;;21.40;99048.00;;;;2072448;28;20222;-63
2023/10/25 03:15:00;;;;;;;6.00;3.90;;;;;21.40;99040.00;;;;2059287;28;20226;-63
2023/10/25 03:16:00;;;;;;;6.90;4.13;;;;;21.40;99047.00;;;;2070007;28;20210;-63
2023/10/25 03:17:01;;;;;;;4.80;4.10;;;;;21.50;99051.00;;;;2071100;28;20250;-63
2023/10/25 03:18:02;;;;;;;4.37;3.43;;;;;21.50;99041.00;;;;2071840;28;20227;-63
2023/10/25 03:19:02;;;;;;;6.00;4.13;;;;;21.40;99044.00;;;;2064246;28;20314;-63
2023/10/25 03:20:04;;;;;;;5.50;3.57;;;;;21.40;99039.00;;;;2053721;28;20236;-63
2023/10/25 03:21:04;;;;;;;4.68;3.55;;;;;21.40;99056.00;;;;2067289;28;20218;-63
2023/10/25 03:22:06;;;;;;;6.20;4.00;;;;;21.50;99064.00;;;;2063968;28;20221;-63
2023/10/25 03:23:06;;;;;;;6.70;3.75;;;;;21.40;99053.00;;;;2067099;28;20353;-63
2023/10/25 03:24:07;;;;;;;6.03;4.13;;;;;21.40;99042.00;;;;2070031;28;20222;-63
2023/10/25 03:25:07;;;;;;;4.03;3.47;;;;;21.40;99042.00;;;;2062660;28;20241;-63
2023/10/25 03:26:09;;;;;;;4.80;3.33;;;;;21.40;99040.00;;;;2070198;28;20213;-63
2023/10/25 03:27:09;;;;;;;4.28;3.20;;;;;21.40;99035.00;;;;2071378;28;20544;-63
2023/10/25 03:28:09;;;;;;;5.27;3.60;;;;;21.40;99030.00;;;;2068467;28;20310;-63
2023/10/25 03:29:11;;;;;;;5.67;3.77;;;;;21.40;99027.00;;;;2068493;28;20238;-63
2023/10/25 03:30:12;;;;;;;5.63;3.22;;;;;21.40;99024.00;;;;2065316;28;20241;-63
2023/10/25 03:31:12;;;;;;;5.23;3.17;;;;;21.40;99026.00;;;;2063463;28;20321;-63
2023/10/25 03:32:12;;;;;;;6.43;3.30;;;;;21.40;99028.00;;;;2065550;28;20260;-63
2023/10/25 03:33:12;;;;;;;4.20;3.17;;;;;21.40;99027.00;;;;2064328;28;20261;-63
2023/10/25 03:34:14;;;;;;;4.03;3.20;;;;;21.40;99022.00;;;;2064287;28;20250;-63
2023/10/25 03:35:14;;;;;;;6.05;3.25;;;;;21.40;98995.00;;;;2061408;28;20740;-63
2023/10/25 03:36:15;;;;;;;5.30;2.83;;;;;21.40;99024.00;;;;2071710;28;20218;-63
2023/10/25 03:37:15;;;;;;;4.73;3.47;;;;;21.40;99018.00;;;;2063543;28;20262;-63
2023/10/25 03:38:16;;;;;;;5.50;3.40;;;;;21.40;99028.00;;;;2060792;28;20213;-63
2023/10/25 03:39:16;;;;;;;5.40;3.20;;;;;21.40;99026.00;;;;2065497;28;20222;-63
2023/10/25 03:40:16;;;;;;;4.07;3.40;;;;;21.40;99013.00;;;;2061239;28;20874;-63
2023/10/25 03:41:17;;;;;;;4.43;2.93;;;;;21.40;99014.00;;;;2064037;28;20245;-63
2023/10/25 03:42:18;;;;;;;3.60;2.67;;;;;21.40;99015.00;;;;2067543;28;20227;-63
2023/10/25 03:43:18;;;;;;;4.70;3.50;;;;;21.40;99018.00;;;;2064034;28;20778;-63
2023/10/25 03:44:18;;;;;;;3.90;2.70;;;;;21.40;99010.00;;;;2063473;28;20564;-63
2023/10/25 03:45:19;;;;;;;5.30;2.77;;;;;21.40;99016.00;;;;2050569;28;20633;-63
2023/10/25 03:46:20;;;;;;;4.63;2.88;;;;;21.40;99014.00;;;;2072023;28;20267;-63
2023/10/25 03:47:20;;;;;;;6.93;3.50;;;;;21.40;99014.00;;;;2074464;28;20230;-63
2023/10/25 03:48:20;;;;;;;3.90;2.70;;;;;21.40;99013.00;;;;2072290;28;20206;-63
2023/10/25 03:49:21;;;;;;;4.07;2.47;;;;;21.40;99017.00;;;;2075182;28;20281;-63
2023/10/25 03:50:21;;;;;;;3.97;2.80;;;;;21.40;99013.00;;;;2057352;28;20222;-63
2023/10/25 03:51:21;;;;;;;4.20;2.50;;;;;21.40;99018.00;;;;2069601;28;20211;-63
2023/10/25 03:52:22;;;;;;;3.10;2.50;;;;;21.40;99019.00;;;;2058761;28;20251;-63
2023/10/25 03:53:22;;;;;;;3.30;2.50;;;;;21.40;99014.00;;;;2062527;28;20215;-63
2023/10/25 03:54:22;;;;;;;4.57;3.10;;;;;21.40;99014.00;;;;2066825;28;20223;-63
2023/10/25 03:55:23;;;;;;;3.20;2.27;;;;;21.40;99014.00;;;;2058967;28;20226;-63
2023/10/25 03:56:23;;;;;;;4.27;2.40;;;;;21.40;99015.00;;;;2071710;28;20320;-63
2023/10/25 03:57:23;;;;;;;3.37;2.40;;;;;21.40;99017.00;;;;2071928;28;20218;-63
2023/10/25 03:58:24;;;;;;;4.77;2.53;;;;;21.40;99012.00;;;;2070045;28;20221;-63
2023/10/25 03:59:25;;;;;;;7.70;2.97;;;;;21.40;99009.00;;;;2063923;28;20261;-63
2023/10/25 04:00:25;;;;;;;3.00;2.47;;;;;21.40;99014.00;;;;2062086;28;20217;-63
2023/10/25 04:01:25;;;;;;;4.17;2.93;;;;;21.40;99008.00;;;;2079702;28;20228;-63
2023/10/25 04:02:27;;;;;;;5.27;2.47;;;;;21.40;99008.00;;;;2074028;28;20210;-63
2023/10/25 04:03:28;;;;;;;3.40;2.28;;;;;21.40;99010.00;;;;2067742;28;20253;-63
2023/10/25 04:04:28;;;;;;;3.97;2.57;;;;;21.40;99006.00;;;;2070030;28;20210;-63
2023/10/25 04:05:29;;;;;;;3.80;2.70;;;;;21.40;99012.00;;;;2062845;28;20247;-63
2023/10/25 04:06:29;;;;;;;2.60;2.17;;;;;21.40;99005.00;;;;2073623;28;20214;-63
2023/10/25 04:07:29;;;;;;;3.00;2.20;;;;;21.40;99002.00;;;;2066989;28;20258;-63
2023/10/25 04:08:29;;;;;;;4.73;2.60;;;;;21.40;99007.00;;;;2079521;28;20209;-63
2023/10/25 04:09:30;;;;;;;2.80;2.20;;;;;21.40;99004.00;;;;2079413;28;20237;-63
2023/10/25 04:10:30;;;;;;;2.37;1.87;;;;;21.40;99006.00;;;;2056751;28;20207;-63
2023/10/25 04:11:31;;;;;;;3.50;2.47;;;;;21.40;99008.00;;;;2071984;28;20204;-63
2023/10/25 04:12:32;;;;;;;4.22;2.40;;;;;21.40;98997.00;;;;2060803;28;20818;-63
2023/10/25 04:13:32;;;;;;;2.73;2.00;;;;;21.40;98994.00;;;;2063605;28;20215;-63
2023/10/25 04:14:33;;;;;;;2.13;1.77;;;;;21.40;98997.00;;;;2073023;28;20243;-63
2023/10/25 04:15:35;;;;;;;3.13;1.93;;;;;21.30;98993.00;;;;2060989;28;20225;-63
2023/10/25 04:16:35;;;;;;;4.28;2.30;;;;;21.30;98982.00;;;;2064109;28;20231;-63
2023/10/25 04:17:36;;;;;;;3.63;2.37;;;;;21.30;98987.00;;;;2075765;28;20267;-63
2023/10/25 04:18:36;;;;;;;2.63;2.07;;;;;21.30;98991.00;;;;2064504;28;20218;-63
2023/10/25 04:19:38;;;;;;;3.50;2.10;;;;;21.40;98969.00;;;;2060605;28;20935;-63
2023/10/25 04:20:38;;;;;;;3.08;1.90;;;;;21.40;98987.00;;;;2058237;28;20944;-63
2023/10/25 04:21:38;;;;;;;3.43;2.00;;;;;21.40;98989.00;;;;2067275;28;20276;-63
2023/10/25 04:22:39;;;;;;;3.10;2.10;;;;;21.30;98995.00;;;;2070978;28;20570;-63
2023/10/25 04:23:39;;;;;;;2.87;1.80;;;;;21.30;98991.00;;;;2072052;28;20694;-63
2023/10/25 04:24:39;;;;;;;1.83;1.50;;;;;21.30;98993.00;;;;2078037;28;20678;-63
2023/10/25 04:25:40;;;;;;;3.20;1.90;;;;;21.30;98994.00;;;;2071445;28;20248;-63
2023/10/25 04:26:40;;;;;;;4.03;2.07;;;;;21.30;98992.00;;;;2079738;28;20229;-63
2023/10/25 04:27:40;;;;;;;2.33;1.60;;;;;21.30;98991.00;;;;2069424;28;20222;-63
2023/10/25 04:28:42;;;;;;;3.30;1.80;;;;;21.30;98988.00;;;;2063354;28;20720;-63
2023/10/25 04:29:43;;;;;;;2.75;1.77;;;;;21.30;98992.00;;;;2062760;28;20702;-63
2023/10/25 04:30:43;;;;;;;2.85;1.80;;;;;21.30;98989.00;;;;2047720;28;20731;-63
2023/10/25 04:31:44;;;;;;;2.70;1.60;;;;;21.30;98987.00;;;;2049389;28;20224;-63
2023/10/25 04:32:46;;;;;;;6.63;1.90;;;;;21.30;98987.00;;;;2058833;28;20222;-63
2023/10/25 04:33:47;;;;;;;2.95;1.73;;;;;21.30;98974.00;;;;2069633;28;20260;-63
2023/10/25 04:34:47;;;;;;;2.47;1.75;;;;;21.30;98982.00;;;;2054185;28;20979;-63
2023/10/25 04:35:48;;;;;;;2.97;2.10;;;;;21.30;98974.00;;;;2063365;28;20276;-63
2023/10/25 04:36:48;;;;;;;2.27;1.80;;;;;21.30;98979.00;;;;2063171;28;20223;-63
2023/10/25 04:37:48;;;;;;;2.93;1.70;;;;;21.30;98975.00;;;;2064037;28;20225;-63
2023/10/25 04:38:49;;;;;;;3.40;2.10;;;;;21.30;98979.00;;;;2068074;28;20278;-63
2023/10/25 04:39:49;;;;;;;2.47;1.80;;;;;21.30;98978.00;;;;2052861;28;20636;-63
2023/10/25 04:40:53;;;;;;;2.53;1.70;;;;;21.30;98977.00;;;;2059616;28;20545;-63
2023/10/25 04:41:53;;;;;;;2.53;1.83;;;;;21.30;98979.00;;;;2059593;28;20219;-63
2023/10/25 04:42:53;;;;;;;2.80;1.73;;;;;21.30;98973.00;;;;2068554;28;20225;-63
2023/10/25 04:43:54;;;;;;;2.30;1.60;;;;;21.30;98974.00;;;;2071907;28;20222;-63
2023/10/25 04:44:54;;;;;;;2.10;1.30;;;;;21.30;98974.00;;;;2062471;28;20210;-64
2023/10/25 04:45:54;;;;;;;2.23;1.60;;;;;21.30;98973.00;;;;2076975;28;20225;-64
2023/10/25 04:46:55;;;;;;;2.73;1.97;;;;;21.30;98971.00;;;;2072030;28;20601;-64
2023/10/25 04:47:55;;;;;;;2.73;1.77;;;;;21.30;98972.00;;;;2062274;28;20293;-64
2023/10/25 04:48:56;;;;;;;2.27;1.63;;;;;21.30;98975.00;;;;2063130;28;20731;-64
2023/10/25 04:49:57;;;;;;;2.50;1.63;;;;;21.30;98969.00;;;;2057436;28;20223;-63
2023/10/25 04:50:58;;;;;;;2.70;1.75;;;;;21.30;98978.00;;;;2075631;28;20243;-63
2023/10/25 04:51:58;;;;;;;2.00;1.40;;;;;21.30;98969.00;;;;2070206;28;20226;-63
2023/10/25 04:52:59;;;;;;;1.83;1.33;;;;;21.30;98965.00;;;;2064246;28;20217;-63
2023/10/25 04:53:59;;;;;;;2.00;1.57;;;;;21.30;98965.00;;;;2079351;28;20264;-63
2023/10/25 04:54:59;;;;;;;2.20;1.53;;;;;21.30;98966.00;;;;2063900;28;20216;-63
2023/10/25 04:56:01;;;;;;;3.40;1.20;;;;;21.30;98967.00;;;;2068843;28;20217;-63
2023/10/25 04:57:01;;;;;;;2.33;1.45;;;;;21.30;98965.00;;;;2071827;28;20214;-63
2023/10/25 04:58:02;;;;;;;1.90;1.50;;;;;21.30;98961.00;;;;2074970;28;20264;-63
2023/10/25 04:59:02;;;;;;;3.50;1.65;;;;;21.30;98961.00;;;;2056717;28;20223;-63